sensor_id;sensor_type;location;lat;lon;timestamp;P1;durP1;ratioP1;P2;durP2;ratioP2
1593;SDS011;790;47.000;16.084;2023-04-06T00:00:30;3.03;;;2.80;;
1593;SDS011;790;47.000;16.084;2023-04-06T00:03:05;4.87;;;2.60;;
1593;SDS011;790;47.000;16.084;2023-04-06T00:05:50;2.67;;;2.47;;
1593;SDS011;790;47.000;16.084;2023-04-06T00:08:31;2.83;;;2.63;;
1593;SDS011;790;47.000;16.084;2023-04-06T00:10:59;5.17;;;3.37;;
1593;SDS011;790;47.000;16.084;2023-04-06T00:13:31;3.73;;;3.23;;
1593;SDS011;790;47.000;16.084;2023-04-06T00:16:02;5.03;;;3.33;;
1593;SDS011;790;47.000;16.084;2023-04-06T00:18:40;3.57;;;2.93;;
1593;SDS011;790;47.000;16.084;2023-04-06T00:24:43;3.33;;;2.83;;
1593;SDS011;790;47.000;16.084;2023-04-06T00:27:12;3.80;;;3.13;;
1593;SDS011;790;47.000;16.084;2023-04-06T00:32:43;3.47;;;3.17;;
1593;SDS011;790;47.000;16.084;2023-04-06T00:35:10;3.07;;;2.80;;
1593;SDS011;790;47.000;16.084;2023-04-06T00:37:37;3.63;;;3.33;;
1593;SDS011;790;47.000;16.084;2023-04-06T00:40:05;4.53;;;2.63;;
1593;SDS011;790;47.000;16.084;2023-04-06T00:42:33;3.53;;;3.23;;
1593;SDS011;790;47.000;16.084;2023-04-06T00:45:02;4.10;;;3.47;;
1593;SDS011;790;47.000;16.084;2023-04-06T00:47:29;5.13;;;2.90;;
1593;SDS011;790;47.000;16.084;2023-04-06T00:49:56;3.00;;;2.80;;
1593;SDS011;790;47.000;16.084;2023-04-06T00:52:25;5.20;;;3.43;;
1593;SDS011;790;47.000;16.084;2023-04-06T00:54:53;4.57;;;2.97;;
1593;SDS011;790;47.000;16.084;2023-04-06T00:57:20;4.10;;;3.17;;
1593;SDS011;790;47.000;16.084;2023-04-06T00:59:47;3.17;;;2.87;;
1593;SDS011;790;47.000;16.084;2023-04-06T01:02:16;3.43;;;2.90;;
1593;SDS011;790;47.000;16.084;2023-04-06T01:04:43;3.60;;;3.10;;
1593;SDS011;790;47.000;16.084;2023-04-06T01:07:11;5.17;;;3.20;;
1593;SDS011;790;47.000;16.084;2023-04-06T01:09:39;4.83;;;3.50;;
1593;SDS011;790;47.000;16.084;2023-04-06T01:12:07;3.27;;;2.57;;
1593;SDS011;790;47.000;16.084;2023-04-06T01:14:34;4.17;;;3.17;;
1593;SDS011;790;47.000;16.084;2023-04-06T01:17:01;3.50;;;3.20;;
1593;SDS011;790;47.000;16.084;2023-04-06T01:19:30;3.33;;;3.03;;
1593;SDS011;790;47.000;16.084;2023-04-06T01:21:57;3.73;;;2.93;;
1593;SDS011;790;47.000;16.084;2023-04-06T01:24:26;3.33;;;3.03;;
1593;SDS011;790;47.000;16.084;2023-04-06T01:26:54;4.63;;;3.07;;
1593;SDS011;790;47.000;16.084;2023-04-06T01:29:22;3.60;;;3.30;;
1593;SDS011;790;47.000;16.084;2023-04-06T01:31:49;5.03;;;3.03;;
1593;SDS011;790;47.000;16.084;2023-04-06T01:34:17;3.93;;;2.97;;
1593;SDS011;790;47.000;16.084;2023-04-06T01:36:44;3.23;;;2.93;;
1593;SDS011;790;47.000;16.084;2023-04-06T01:39:11;4.80;;;2.80;;
1593;SDS011;790;47.000;16.084;2023-04-06T01:41:40;4.10;;;3.40;;
1593;SDS011;790;47.000;16.084;2023-04-06T01:44:07;3.60;;;2.87;;
1593;SDS011;790;47.000;16.084;2023-04-06T01:46:34;4.90;;;3.17;;
1593;SDS011;790;47.000;16.084;2023-04-06T01:49:03;6.33;;;3.10;;
1593;SDS011;790;47.000;16.084;2023-04-06T01:51:31;5.97;;;3.60;;
1593;SDS011;790;47.000;16.084;2023-04-06T01:53:58;3.40;;;3.10;;
1593;SDS011;790;47.000;16.084;2023-04-06T01:56:25;3.30;;;3.00;;
1593;SDS011;790;47.000;16.084;2023-04-06T01:58:54;3.40;;;3.10;;
1593;SDS011;790;47.000;16.084;2023-04-06T02:01:22;4.20;;;3.13;;
1593;SDS011;790;47.000;16.084;2023-04-06T02:03:49;3.57;;;3.23;;
1593;SDS011;790;47.000;16.084;2023-04-06T02:06:16;2.90;;;2.70;;
1593;SDS011;790;47.000;16.084;2023-04-06T02:08:43;3.57;;;3.23;;
1593;SDS011;790;47.000;16.084;2023-04-06T02:11:11;3.03;;;2.73;;
1593;SDS011;790;47.000;16.084;2023-04-06T02:13:38;3.90;;;3.10;;
1593;SDS011;790;47.000;16.084;2023-04-06T02:16:08;2.97;;;2.77;;
1593;SDS011;790;47.000;16.084;2023-04-06T02:18:36;3.43;;;2.70;;
1593;SDS011;790;47.000;16.084;2023-04-06T02:21:03;3.97;;;2.90;;
1593;SDS011;790;47.000;16.084;2023-04-06T02:23:32;4.60;;;3.00;;
1593;SDS011;790;47.000;16.084;2023-04-06T02:25:59;3.13;;;2.83;;
1593;SDS011;790;47.000;16.084;2023-04-06T02:28:26;2.63;;;2.43;;
1593;SDS011;790;47.000;16.084;2023-04-06T02:30:56;4.30;;;3.10;;
1593;SDS011;790;47.000;16.084;2023-04-06T02:33:34;3.97;;;3.03;;
1593;SDS011;790;47.000;16.084;2023-04-06T02:36:04;3.73;;;3.40;;
1593;SDS011;790;47.000;16.084;2023-04-06T02:38:53;3.07;;;2.77;;
1593;SDS011;790;47.000;16.084;2023-04-06T02:41:32;3.27;;;2.73;;
1593;SDS011;790;47.000;16.084;2023-04-06T02:44:17;3.07;;;2.53;;
1593;SDS011;790;47.000;16.084;2023-04-06T02:47:07;3.00;;;2.80;;
1593;SDS011;790;47.000;16.084;2023-04-06T02:49:39;2.80;;;2.60;;
1593;SDS011;790;47.000;16.084;2023-04-06T02:52:09;3.03;;;2.80;;
1593;SDS011;790;47.000;16.084;2023-04-06T02:54:39;2.77;;;2.53;;
1593;SDS011;790;47.000;16.084;2023-04-06T02:57:07;3.27;;;2.97;;
1593;SDS011;790;47.000;16.084;2023-04-06T02:59:38;3.60;;;3.17;;
1593;SDS011;790;47.000;16.084;2023-04-06T03:02:06;4.47;;;2.93;;
1593;SDS011;790;47.000;16.084;2023-04-06T03:04:34;2.77;;;2.57;;
1593;SDS011;790;47.000;16.084;2023-04-06T03:07:06;4.47;;;3.07;;
1593;SDS011;790;47.000;16.084;2023-04-06T03:09:33;3.83;;;2.93;;
1593;SDS011;790;47.000;16.084;2023-04-06T03:12:03;3.07;;;2.77;;
1593;SDS011;790;47.000;16.084;2023-04-06T03:14:32;3.13;;;2.83;;
1593;SDS011;790;47.000;16.084;2023-04-06T03:17:06;3.27;;;2.40;;
1593;SDS011;790;47.000;16.084;2023-04-06T03:19:34;4.77;;;3.50;;
1593;SDS011;790;47.000;16.084;2023-04-06T03:22:07;3.67;;;3.00;;
1593;SDS011;790;47.000;16.084;2023-04-06T03:24:39;3.87;;;2.90;;
1593;SDS011;790;47.000;16.084;2023-04-06T03:27:06;3.10;;;2.83;;
1593;SDS011;790;47.000;16.084;2023-04-06T03:29:40;2.90;;;2.60;;
1593;SDS011;790;47.000;16.084;2023-04-06T03:32:14;3.53;;;2.93;;
1593;SDS011;790;47.000;16.084;2023-04-06T03:34:43;3.40;;;3.10;;
1593;SDS011;790;47.000;16.084;2023-04-06T03:37:14;2.97;;;2.67;;
1593;SDS011;790;47.000;16.084;2023-04-06T03:39:42;3.20;;;2.90;;
1593;SDS011;790;47.000;16.084;2023-04-06T03:42:12;3.00;;;2.50;;
1593;SDS011;790;47.000;16.084;2023-04-06T03:44:40;3.60;;;3.30;;
1593;SDS011;790;47.000;16.084;2023-04-06T03:47:08;3.70;;;3.00;;
1593;SDS011;790;47.000;16.084;2023-04-06T03:49:36;4.00;;;2.80;;
1593;SDS011;790;47.000;16.084;2023-04-06T03:52:05;2.70;;;2.60;;
1593;SDS011;790;47.000;16.084;2023-04-06T03:54:35;3.63;;;2.87;;
1593;SDS011;790;47.000;16.084;2023-04-06T03:57:03;2.93;;;2.60;;
1593;SDS011;790;47.000;16.084;2023-04-06T03:59:31;3.20;;;2.87;;
1593;SDS011;790;47.000;16.084;2023-04-06T04:02:00;3.87;;;3.00;;
1593;SDS011;790;47.000;16.084;2023-04-06T04:04:29;3.47;;;3.17;;
1593;SDS011;790;47.000;16.084;2023-04-06T04:07:06;3.83;;;3.53;;
1593;SDS011;790;47.000;16.084;2023-04-06T04:09:38;3.20;;;3.00;;
1593;SDS011;790;47.000;16.084;2023-04-06T04:12:08;3.33;;;2.73;;
1593;SDS011;790;47.000;16.084;2023-04-06T04:14:37;3.63;;;3.17;;
1593;SDS011;790;47.000;16.084;2023-04-06T04:17:05;4.00;;;3.37;;
1593;SDS011;790;47.000;16.084;2023-04-06T04:19:33;4.03;;;3.23;;
1593;SDS011;790;47.000;16.084;2023-04-06T04:22:00;3.13;;;2.83;;
1593;SDS011;790;47.000;16.084;2023-04-06T04:24:29;3.23;;;2.90;;
1593;SDS011;790;47.000;16.084;2023-04-06T04:26:58;3.53;;;3.13;;
1593;SDS011;790;47.000;16.084;2023-04-06T04:29:27;3.37;;;3.07;;
1593;SDS011;790;47.000;16.084;2023-04-06T04:31:54;2.90;;;2.60;;
1593;SDS011;790;47.000;16.084;2023-04-06T04:34:23;5.27;;;3.60;;
1593;SDS011;790;47.000;16.084;2023-04-06T04:36:51;3.77;;;2.83;;
1593;SDS011;790;47.000;16.084;2023-04-06T04:39:19;2.90;;;2.70;;
1593;SDS011;790;47.000;16.084;2023-04-06T04:41:47;4.93;;;3.20;;
1593;SDS011;790;47.000;16.084;2023-04-06T04:44:21;4.93;;;3.47;;
1593;SDS011;790;47.000;16.084;2023-04-06T04:46:48;4.03;;;3.03;;
1593;SDS011;790;47.000;16.084;2023-04-06T04:49:16;3.57;;;3.10;;
1593;SDS011;790;47.000;16.084;2023-04-06T04:51:44;4.97;;;3.00;;
1593;SDS011;790;47.000;16.084;2023-04-06T04:54:12;6.60;;;3.03;;
1593;SDS011;790;47.000;16.084;2023-04-06T04:56:39;4.67;;;3.60;;
1593;SDS011;790;47.000;16.084;2023-04-06T04:59:07;3.33;;;3.03;;
1593;SDS011;790;47.000;16.084;2023-04-06T05:01:36;3.73;;;3.03;;
1593;SDS011;790;47.000;16.084;2023-04-06T05:04:05;6.23;;;3.63;;
1593;SDS011;790;47.000;16.084;2023-04-06T05:06:32;5.80;;;3.40;;
1593;SDS011;790;47.000;16.084;2023-04-06T05:09:00;5.30;;;3.43;;
1593;SDS011;790;47.000;16.084;2023-04-06T05:11:30;3.90;;;3.50;;
1593;SDS011;790;47.000;16.084;2023-04-06T05:13:57;4.03;;;3.63;;
1593;SDS011;790;47.000;16.084;2023-04-06T05:16:27;6.40;;;4.43;;
1593;SDS011;790;47.000;16.084;2023-04-06T05:19:01;6.03;;;4.40;;
1593;SDS011;790;47.000;16.084;2023-04-06T05:21:29;7.83;;;5.33;;
1593;SDS011;790;47.000;16.084;2023-04-06T05:23:58;8.67;;;5.83;;
1593;SDS011;790;47.000;16.084;2023-04-06T05:26:27;7.03;;;4.90;;
1593;SDS011;790;47.000;16.084;2023-04-06T05:28:55;6.97;;;5.17;;
1593;SDS011;790;47.000;16.084;2023-04-06T05:31:22;6.63;;;5.20;;
1593;SDS011;790;47.000;16.084;2023-04-06T05:33:50;9.43;;;5.40;;
1593;SDS011;790;47.000;16.084;2023-04-06T05:36:19;7.70;;;5.97;;
1593;SDS011;790;47.000;16.084;2023-04-06T05:38:46;8.63;;;5.60;;
1593;SDS011;790;47.000;16.084;2023-04-06T05:41:15;10.47;;;6.57;;
1593;SDS011;790;47.000;16.084;2023-04-06T05:43:44;9.47;;;6.10;;
1593;SDS011;790;47.000;16.084;2023-04-06T05:46:11;11.70;;;6.30;;
1593;SDS011;790;47.000;16.084;2023-04-06T05:48:42;8.77;;;6.90;;
1593;SDS011;790;47.000;16.084;2023-04-06T05:51:10;8.40;;;6.43;;
1593;SDS011;790;47.000;16.084;2023-04-06T05:53:40;10.33;;;7.00;;
1593;SDS011;790;47.000;16.084;2023-04-06T05:56:08;10.87;;;7.07;;
1593;SDS011;790;47.000;16.084;2023-04-06T05:58:36;13.20;;;7.60;;
1593;SDS011;790;47.000;16.084;2023-04-06T06:01:04;10.77;;;6.93;;
1593;SDS011;790;47.000;16.084;2023-04-06T06:03:31;10.47;;;7.10;;
1593;SDS011;790;47.000;16.084;2023-04-06T06:05:59;7.20;;;5.87;;
1593;SDS011;790;47.000;16.084;2023-04-06T06:08:27;5.87;;;5.23;;
1593;SDS011;790;47.000;16.084;2023-04-06T06:11:02;5.60;;;4.60;;
1593;SDS011;790;47.000;16.084;2023-04-06T06:13:33;7.53;;;5.47;;
1593;SDS011;790;47.000;16.084;2023-04-06T06:16:01;4.93;;;4.33;;
1593;SDS011;790;47.000;16.084;2023-04-06T06:18:30;5.00;;;4.07;;
1593;SDS011;790;47.000;16.084;2023-04-06T06:20:58;4.00;;;3.70;;
1593;SDS011;790;47.000;16.084;2023-04-06T06:23:29;4.77;;;4.27;;
1593;SDS011;790;47.000;16.084;2023-04-06T06:26:03;4.70;;;4.30;;
1593;SDS011;790;47.000;16.084;2023-04-06T06:28:34;4.13;;;3.63;;
1593;SDS011;790;47.000;16.084;2023-04-06T06:31:03;5.30;;;4.50;;
1593;SDS011;790;47.000;16.084;2023-04-06T06:33:33;5.40;;;4.17;;
1593;SDS011;790;47.000;16.084;2023-04-06T06:36:02;6.40;;;4.30;;
1593;SDS011;790;47.000;16.084;2023-04-06T06:38:32;5.00;;;3.87;;
1593;SDS011;790;47.000;16.084;2023-04-06T06:41:18;6.43;;;3.87;;
1593;SDS011;790;47.000;16.084;2023-04-06T06:43:48;5.10;;;4.07;;
1593;SDS011;790;47.000;16.084;2023-04-06T06:46:17;3.90;;;3.13;;
1593;SDS011;790;47.000;16.084;2023-04-06T06:48:55;3.90;;;3.50;;
1593;SDS011;790;47.000;16.084;2023-04-06T06:51:28;4.70;;;3.73;;
1593;SDS011;790;47.000;16.084;2023-04-06T06:54:00;6.60;;;5.20;;
1593;SDS011;790;47.000;16.084;2023-04-06T06:56:37;7.43;;;4.43;;
1593;SDS011;790;47.000;16.084;2023-04-06T06:59:07;6.53;;;4.37;;
1593;SDS011;790;47.000;16.084;2023-04-06T07:01:38;3.97;;;3.63;;
1593;SDS011;790;47.000;16.084;2023-04-06T07:04:06;3.97;;;3.67;;
1593;SDS011;790;47.000;16.084;2023-04-06T07:06:34;6.27;;;4.03;;
1593;SDS011;790;47.000;16.084;2023-04-06T07:09:03;3.60;;;3.30;;
1593;SDS011;790;47.000;16.084;2023-04-06T07:11:30;4.13;;;3.73;;
1593;SDS011;790;47.000;16.084;2023-04-06T07:14:01;5.73;;;4.33;;
1593;SDS011;790;47.000;16.084;2023-04-06T07:16:29;4.10;;;3.70;;
1593;SDS011;790;47.000;16.084;2023-04-06T07:18:58;6.33;;;3.87;;
1593;SDS011;790;47.000;16.084;2023-04-06T07:21:26;4.33;;;3.67;;
1593;SDS011;790;47.000;16.084;2023-04-06T07:23:54;4.03;;;3.67;;
1593;SDS011;790;47.000;16.084;2023-04-06T07:26:21;4.77;;;3.57;;
1593;SDS011;790;47.000;16.084;2023-04-06T07:28:50;5.27;;;3.37;;
1593;SDS011;790;47.000;16.084;2023-04-06T07:31:20;4.50;;;3.87;;
1593;SDS011;790;47.000;16.084;2023-04-06T07:33:48;4.13;;;3.73;;
1593;SDS011;790;47.000;16.084;2023-04-06T07:36:15;5.67;;;4.00;;
1593;SDS011;790;47.000;16.084;2023-04-06T07:38:46;4.80;;;3.67;;
1593;SDS011;790;47.000;16.084;2023-04-06T07:41:14;5.57;;;4.17;;
1593;SDS011;790;47.000;16.084;2023-04-06T07:43:42;3.60;;;3.30;;
1593;SDS011;790;47.000;16.084;2023-04-06T07:46:11;5.00;;;3.70;;
1593;SDS011;790;47.000;16.084;2023-04-06T07:48:43;4.20;;;3.90;;
1593;SDS011;790;47.000;16.084;2023-04-06T07:51:10;3.90;;;3.40;;
1593;SDS011;790;47.000;16.084;2023-04-06T07:53:40;4.10;;;3.80;;
1593;SDS011;790;47.000;16.084;2023-04-06T07:56:08;4.17;;;3.83;;
1593;SDS011;790;47.000;16.084;2023-04-06T07:58:36;6.47;;;4.20;;
1593;SDS011;790;47.000;16.084;2023-04-06T08:01:04;4.90;;;3.33;;
1593;SDS011;790;47.000;16.084;2023-04-06T08:03:33;4.60;;;3.60;;
1593;SDS011;790;47.000;16.084;2023-04-06T08:06:04;5.17;;;4.03;;
1593;SDS011;790;47.000;16.084;2023-04-06T08:08:32;4.53;;;3.07;;
1593;SDS011;790;47.000;16.084;2023-04-06T08:11:00;4.07;;;3.77;;
1593;SDS011;790;47.000;16.084;2023-04-06T08:13:29;4.20;;;3.47;;
1593;SDS011;790;47.000;16.084;2023-04-06T08:15:58;4.47;;;4.07;;
1593;SDS011;790;47.000;16.084;2023-04-06T08:18:26;4.10;;;3.73;;
1593;SDS011;790;47.000;16.084;2023-04-06T08:20:58;7.33;;;4.13;;
1593;SDS011;790;47.000;16.084;2023-04-06T08:23:32;4.43;;;4.13;;
1593;SDS011;790;47.000;16.084;2023-04-06T08:26:01;4.27;;;3.87;;
1593;SDS011;790;47.000;16.084;2023-04-06T08:28:32;4.57;;;4.17;;
1593;SDS011;790;47.000;16.084;2023-04-06T08:31:02;4.83;;;4.40;;
1593;SDS011;790;47.000;16.084;2023-04-06T08:33:32;4.80;;;4.40;;
1593;SDS011;790;47.000;16.084;2023-04-06T08:36:11;5.37;;;4.30;;
1593;SDS011;790;47.000;16.084;2023-04-06T08:38:42;4.90;;;4.40;;
1593;SDS011;790;47.000;16.084;2023-04-06T08:41:11;5.23;;;4.73;;
1593;SDS011;790;47.000;16.084;2023-04-06T08:43:42;5.47;;;4.40;;
1593;SDS011;790;47.000;16.084;2023-04-06T08:46:12;4.77;;;4.30;;
1593;SDS011;790;47.000;16.084;2023-04-06T08:48:45;4.37;;;4.07;;
1593;SDS011;790;47.000;16.084;2023-04-06T08:51:15;5.43;;;4.23;;
1593;SDS011;790;47.000;16.084;2023-04-06T08:53:45;4.30;;;4.00;;
1593;SDS011;790;47.000;16.084;2023-04-06T08:56:14;4.60;;;4.07;;
1593;SDS011;790;47.000;16.084;2023-04-06T08:58:46;4.50;;;4.10;;
1593;SDS011;790;47.000;16.084;2023-04-06T09:01:17;4.63;;;4.33;;
1593;SDS011;790;47.000;16.084;2023-04-06T09:03:48;7.70;;;4.37;;
1593;SDS011;790;47.000;16.084;2023-04-06T09:06:17;4.60;;;4.20;;
1593;SDS011;790;47.000;16.084;2023-04-06T09:08:50;6.23;;;4.27;;
1593;SDS011;790;47.000;16.084;2023-04-06T09:11:18;7.10;;;4.23;;
1593;SDS011;790;47.000;16.084;2023-04-06T09:13:46;4.10;;;3.80;;
1593;SDS011;790;47.000;16.084;2023-04-06T09:16:18;3.83;;;3.53;;
1593;SDS011;790;47.000;16.084;2023-04-06T09:18:46;4.17;;;3.77;;
1593;SDS011;790;47.000;16.084;2023-04-06T09:21:16;3.63;;;3.33;;
1593;SDS011;790;47.000;16.084;2023-04-06T09:23:44;3.73;;;3.40;;
1593;SDS011;790;47.000;16.084;2023-04-06T09:26:17;3.57;;;3.27;;
1593;SDS011;790;47.000;16.084;2023-04-06T09:28:46;4.03;;;3.73;;
1593;SDS011;790;47.000;16.084;2023-04-06T09:31:14;3.40;;;3.20;;
1593;SDS011;790;47.000;16.084;2023-04-06T09:33:44;3.00;;;2.90;;
1593;SDS011;790;47.000;16.084;2023-04-06T09:36:13;3.20;;;3.00;;
1593;SDS011;790;47.000;16.084;2023-04-06T09:38:54;4.77;;;3.83;;
1593;SDS011;790;47.000;16.084;2023-04-06T09:41:30;4.00;;;3.30;;
1593;SDS011;790;47.000;16.084;2023-04-06T09:44:02;3.53;;;3.33;;
1593;SDS011;790;47.000;16.084;2023-04-06T09:46:37;3.17;;;2.97;;
1593;SDS011;790;47.000;16.084;2023-04-06T09:49:06;3.87;;;3.47;;
1593;SDS011;790;47.000;16.084;2023-04-06T09:51:37;3.77;;;3.47;;
1593;SDS011;790;47.000;16.084;2023-04-06T09:54:06;3.30;;;3.10;;
1593;SDS011;790;47.000;16.084;2023-04-06T09:56:39;2.63;;;2.40;;
1593;SDS011;790;47.000;16.084;2023-04-06T09:59:17;3.60;;;3.30;;
1593;SDS011;790;47.000;16.084;2023-04-06T10:01:52;4.80;;;3.43;;
1593;SDS011;790;47.000;16.084;2023-04-06T10:04:28;3.00;;;2.70;;
1593;SDS011;790;47.000;16.084;2023-04-06T10:07:03;3.40;;;3.10;;
1593;SDS011;790;47.000;16.084;2023-04-06T10:09:33;2.73;;;2.60;;
1593;SDS011;790;47.000;16.084;2023-04-06T10:12:06;3.10;;;2.90;;
1593;SDS011;790;47.000;16.084;2023-04-06T10:14:36;3.90;;;2.90;;
1593;SDS011;790;47.000;16.084;2023-04-06T10:17:07;2.60;;;2.40;;
1593;SDS011;790;47.000;16.084;2023-04-06T10:19:39;3.40;;;3.10;;
1593;SDS011;790;47.000;16.084;2023-04-06T10:22:12;4.47;;;3.20;;
1593;SDS011;790;47.000;16.084;2023-04-06T10:24:50;3.60;;;3.30;;
1593;SDS011;790;47.000;16.084;2023-04-06T10:27:28;3.10;;;2.73;;
1593;SDS011;790;47.000;16.084;2023-04-06T10:30:01;2.80;;;2.60;;
1593;SDS011;790;47.000;16.084;2023-04-06T10:32:33;3.37;;;2.83;;
1593;SDS011;790;47.000;16.084;2023-04-06T10:35:06;3.60;;;2.90;;
1593;SDS011;790;47.000;16.084;2023-04-06T10:37:45;3.13;;;2.93;;
1593;SDS011;790;47.000;16.084;2023-04-06T10:40:22;2.67;;;2.57;;
1593;SDS011;790;47.000;16.084;2023-04-06T10:42:54;3.47;;;3.27;;
1593;SDS011;790;47.000;16.084;2023-04-06T10:45:32;6.53;;;3.17;;
1593;SDS011;790;47.000;16.084;2023-04-06T10:50:52;4.30;;;3.50;;
1593;SDS011;790;47.000;16.084;2023-04-06T10:53:20;3.97;;;3.30;;
1593;SDS011;790;47.000;16.084;2023-04-06T10:55:49;3.20;;;3.00;;
1593;SDS011;790;47.000;16.084;2023-04-06T10:58:19;3.53;;;3.17;;
1593;SDS011;790;47.000;16.084;2023-04-06T11:00:57;3.20;;;3.00;;
1593;SDS011;790;47.000;16.084;2023-04-06T11:03:25;6.30;;;3.20;;
1593;SDS011;790;47.000;16.084;2023-04-06T11:05:55;3.40;;;3.00;;
1593;SDS011;790;47.000;16.084;2023-04-06T11:08:23;4.87;;;2.80;;
1593;SDS011;790;47.000;16.084;2023-04-06T11:11:06;2.87;;;2.70;;
1593;SDS011;790;47.000;16.084;2023-04-06T11:13:42;3.50;;;3.20;;
1593;SDS011;790;47.000;16.084;2023-04-06T11:16:14;3.10;;;2.80;;
1593;SDS011;790;47.000;16.084;2023-04-06T11:18:49;3.67;;;3.13;;
1593;SDS011;790;47.000;16.084;2023-04-06T11:21:31;4.03;;;3.10;;
1593;SDS011;790;47.000;16.084;2023-04-06T11:24:04;3.10;;;2.90;;
1593;SDS011;790;47.000;16.084;2023-04-06T11:26:36;3.20;;;2.90;;
1593;SDS011;790;47.000;16.084;2023-04-06T11:29:07;3.67;;;3.37;;
1593;SDS011;790;47.000;16.084;2023-04-06T11:31:42;3.80;;;3.50;;
1593;SDS011;790;47.000;16.084;2023-04-06T11:34:18;3.33;;;3.13;;
1593;SDS011;790;47.000;16.084;2023-04-06T11:36:47;3.20;;;3.00;;
1593;SDS011;790;47.000;16.084;2023-04-06T11:39:18;3.43;;;3.20;;
1593;SDS011;790;47.000;16.084;2023-04-06T11:41:47;3.87;;;3.57;;
1593;SDS011;790;47.000;16.084;2023-04-06T11:44:26;6.60;;;3.60;;
1593;SDS011;790;47.000;16.084;2023-04-06T11:46:56;3.30;;;3.10;;
1593;SDS011;790;47.000;16.084;2023-04-06T11:49:26;3.27;;;3.07;;
1593;SDS011;790;47.000;16.084;2023-04-06T11:51:54;3.37;;;3.10;;
1593;SDS011;790;47.000;16.084;2023-04-06T11:54:29;3.43;;;3.13;;
1593;SDS011;790;47.000;16.084;2023-04-06T11:56:57;3.27;;;3.07;;
1593;SDS011;790;47.000;16.084;2023-04-06T11:59:27;4.73;;;3.20;;
1593;SDS011;790;47.000;16.084;2023-04-06T12:01:55;2.73;;;2.53;;
1593;SDS011;790;47.000;16.084;2023-04-06T12:04:23;3.93;;;3.43;;
1593;SDS011;790;47.000;16.084;2023-04-06T12:06:50;3.20;;;3.00;;
1593;SDS011;790;47.000;16.084;2023-04-06T12:09:19;3.57;;;3.03;;
1593;SDS011;790;47.000;16.084;2023-04-06T12:11:46;3.53;;;3.23;;
1593;SDS011;790;47.000;16.084;2023-04-06T12:14:14;2.93;;;2.73;;
1593;SDS011;790;47.000;16.084;2023-04-06T12:16:43;3.40;;;3.00;;
1593;SDS011;790;47.000;16.084;2023-04-06T12:19:10;2.80;;;2.60;;
1593;SDS011;790;47.000;16.084;2023-04-06T12:21:39;2.90;;;2.70;;
1593;SDS011;790;47.000;16.084;2023-04-06T12:24:07;3.80;;;3.27;;
1593;SDS011;790;47.000;16.084;2023-04-06T12:26:35;3.03;;;2.83;;
1593;SDS011;790;47.000;16.084;2023-04-06T12:29:04;3.30;;;3.10;;
1593;SDS011;790;47.000;16.084;2023-04-06T12:31:34;3.30;;;3.10;;
1593;SDS011;790;47.000;16.084;2023-04-06T12:34:06;3.77;;;2.93;;
1593;SDS011;790;47.000;16.084;2023-04-06T12:36:34;3.60;;;2.90;;
1593;SDS011;790;47.000;16.084;2023-04-06T12:39:05;3.70;;;2.63;;
1593;SDS011;790;47.000;16.084;2023-04-06T12:41:34;3.13;;;2.93;;
1593;SDS011;790;47.000;16.084;2023-04-06T12:44:01;2.70;;;2.50;;
1593;SDS011;790;47.000;16.084;2023-04-06T12:46:31;2.80;;;2.60;;
1593;SDS011;790;47.000;16.084;2023-04-06T12:48:58;3.00;;;2.80;;
1593;SDS011;790;47.000;16.084;2023-04-06T12:51:28;2.90;;;2.70;;
1593;SDS011;790;47.000;16.084;2023-04-06T12:53:59;3.10;;;2.90;;
1593;SDS011;790;47.000;16.084;2023-04-06T12:56:28;2.97;;;2.77;;
1593;SDS011;790;47.000;16.084;2023-04-06T12:58:56;2.80;;;2.60;;
1593;SDS011;790;47.000;16.084;2023-04-06T13:01:24;2.60;;;2.50;;
1593;SDS011;790;47.000;16.084;2023-04-06T13:03:53;2.87;;;2.67;;
1593;SDS011;790;47.000;16.084;2023-04-06T13:06:21;4.27;;;2.57;;
1593;SDS011;790;47.000;16.084;2023-04-06T13:08:54;2.70;;;2.50;;
1593;SDS011;790;47.000;16.084;2023-04-06T13:11:23;3.23;;;2.90;;
1593;SDS011;790;47.000;16.084;2023-04-06T13:13:54;4.70;;;2.30;;
1593;SDS011;790;47.000;16.084;2023-04-06T13:16:23;2.70;;;2.50;;
1593;SDS011;790;47.000;16.084;2023-04-06T13:18:50;3.60;;;2.40;;
1593;SDS011;790;47.000;16.084;2023-04-06T13:21:19;3.33;;;2.23;;
1593;SDS011;790;47.000;16.084;2023-04-06T13:23:57;2.23;;;2.13;;
1593;SDS011;790;47.000;16.084;2023-04-06T13:26:27;2.40;;;2.30;;
1593;SDS011;790;47.000;16.084;2023-04-06T13:28:55;2.10;;;2.00;;
1593;SDS011;790;47.000;16.084;2023-04-06T13:31:23;2.87;;;2.67;;
1593;SDS011;790;47.000;16.084;2023-04-06T13:33:52;2.60;;;2.40;;
1593;SDS011;790;47.000;16.084;2023-04-06T13:36:22;2.67;;;2.57;;
1593;SDS011;790;47.000;16.084;2023-04-06T13:38:49;2.50;;;2.40;;
1593;SDS011;790;47.000;16.084;2023-04-06T13:41:19;2.20;;;2.10;;
1593;SDS011;790;47.000;16.084;2023-04-06T13:43:48;2.43;;;2.23;;
1593;SDS011;790;47.000;16.084;2023-04-06T13:46:16;3.43;;;2.07;;
1593;SDS011;790;47.000;16.084;2023-04-06T13:48:49;2.13;;;2.03;;
1593;SDS011;790;47.000;16.084;2023-04-06T13:51:17;2.03;;;1.90;;
1593;SDS011;790;47.000;16.084;2023-04-06T13:53:47;2.53;;;2.37;;
1593;SDS011;790;47.000;16.084;2023-04-06T13:56:21;2.67;;;1.70;;
1593;SDS011;790;47.000;16.084;2023-04-06T13:58:50;2.10;;;2.00;;
1593;SDS011;790;47.000;16.084;2023-04-06T14:01:21;3.80;;;2.30;;
1593;SDS011;790;47.000;16.084;2023-04-06T14:03:50;2.37;;;2.17;;
1593;SDS011;790;47.000;16.084;2023-04-06T14:06:19;2.00;;;1.90;;
1593;SDS011;790;47.000;16.084;2023-04-06T14:08:47;2.20;;;2.10;;
1593;SDS011;790;47.000;16.084;2023-04-06T14:11:15;2.00;;;1.90;;
1593;SDS011;790;47.000;16.084;2023-04-06T14:13:45;2.67;;;2.00;;
1593;SDS011;790;47.000;16.084;2023-04-06T14:16:12;2.07;;;1.93;;
1593;SDS011;790;47.000;16.084;2023-04-06T14:18:44;2.20;;;2.03;;
1593;SDS011;790;47.000;16.084;2023-04-06T14:21:12;3.33;;;2.13;;
1593;SDS011;790;47.000;16.084;2023-04-06T14:23:40;3.67;;;2.33;;
1593;SDS011;790;47.000;16.084;2023-04-06T14:26:09;2.23;;;2.07;;
1593;SDS011;790;47.000;16.084;2023-04-06T14:28:37;2.83;;;1.97;;
1593;SDS011;790;47.000;16.084;2023-04-06T14:31:11;2.10;;;1.90;;
1593;SDS011;790;47.000;16.084;2023-04-06T14:33:42;1.83;;;1.73;;
1593;SDS011;790;47.000;16.084;2023-04-06T14:36:10;3.20;;;1.90;;
1593;SDS011;790;47.000;16.084;2023-04-06T14:38:37;1.60;;;1.50;;
1593;SDS011;790;47.000;16.084;2023-04-06T14:41:06;2.30;;;2.17;;
1593;SDS011;790;47.000;16.084;2023-04-06T14:43:35;2.03;;;1.73;;
1593;SDS011;790;47.000;16.084;2023-04-06T14:46:06;1.90;;;1.80;;
1593;SDS011;790;47.000;16.084;2023-04-06T14:48:38;3.17;;;1.90;;
1593;SDS011;790;47.000;16.084;2023-04-06T14:51:06;1.87;;;1.77;;
1593;SDS011;790;47.000;16.084;2023-04-06T14:53:35;1.80;;;1.70;;
1593;SDS011;790;47.000;16.084;2023-04-06T14:56:02;2.57;;;2.20;;
1593;SDS011;790;47.000;16.084;2023-04-06T14:58:31;1.97;;;1.83;;
1593;SDS011;790;47.000;16.084;2023-04-06T15:01:00;2.30;;;2.10;;
1593;SDS011;790;47.000;16.084;2023-04-06T15:03:30;3.13;;;1.90;;
1593;SDS011;790;47.000;16.084;2023-04-06T15:05:58;2.60;;;1.80;;
1593;SDS011;790;47.000;16.084;2023-04-06T15:08:26;2.10;;;1.90;;
1593;SDS011;790;47.000;16.084;2023-04-06T15:10:59;2.03;;;1.93;;
1593;SDS011;790;47.000;16.084;2023-04-06T15:13:27;2.30;;;2.07;;
1593;SDS011;790;47.000;16.084;2023-04-06T15:16:02;2.10;;;1.60;;
1593;SDS011;790;47.000;16.084;2023-04-06T15:18:31;2.10;;;1.70;;
1593;SDS011;790;47.000;16.084;2023-04-06T15:21:00;2.13;;;2.00;;
1593;SDS011;790;47.000;16.084;2023-04-06T15:23:31;1.77;;;1.40;;
1593;SDS011;790;47.000;16.084;2023-04-06T15:26:02;3.13;;;1.80;;
1593;SDS011;790;47.000;16.084;2023-04-06T15:28:31;2.03;;;1.83;;
1593;SDS011;790;47.000;16.084;2023-04-06T15:31:00;1.90;;;1.77;;
1593;SDS011;790;47.000;16.084;2023-04-06T15:33:34;2.00;;;1.90;;
1593;SDS011;790;47.000;16.084;2023-04-06T15:36:04;2.17;;;1.93;;
1593;SDS011;790;47.000;16.084;2023-04-06T15:38:35;2.30;;;2.10;;
1593;SDS011;790;47.000;16.084;2023-04-06T15:41:05;1.90;;;1.80;;